Iowa City, IA

4:45 PM CDT en Septiembre 18, 2014 (GMT -0500)
Village Green - East Side | Change Station
CLOSE
Current Station
Estación meteorológica personal
Location: Iowa City, IA
Altura: 750 ft
Estaciones meteorológicas cercanas

Alt 750 ft 41.65 °N, 91.49 °W | Updated 10 seconds ago

Partly Cloudy
Parcialmente nublado
73.0 ° F
Sensación térmica 77 ° F
N
0.0
Viento Variable Viento desde SSO
Gusts 2.0 mph

Hoy
Alta -- | Baja -- ° F
--% Posibilidad de precipitaciones
Ayer
Alta -- | Baja -- ° F
Precip. -- pul
6:49 AM 7:10 PM
Creciente menguante, 24% visible
Presión 30.06 pul
Visibilidad 10.0 Millas
Nubes Baja 5000 ft
Índice de calor 77 ° F
Punto de rocío 56 ° F
Humedad 55%
Precipitaciones 0.00 pul
Espesor de la nieve No disponible.
UV 4 de una escala de 12
Polen 4.60 de una escala de 12
Calidad del aire No disponible.
Flu Activity No disponible.
METAR KIOW 182052Z AUTO VRB06KT 10SM FEW050 23/12 A3006 RMK AO2 SLP179 T02280122 56015

More Conditions Fewer Conditions

Presión 30.06 pul
Visibilidad 10.0 Millas
Nubes Baja 5000 ft
Índice de calor 77 ° F
Punto de rocío 56 ° F
Humedad 55%
Precipitaciones 0.00 pul
Espesor de la nieve No disponible.
UV 4 de una escala de 12
Polen 4.60 de una escala de 12
Calidad del aire No disponible.
Flu Activity No disponible.
METAR KIOW 182052Z AUTO VRB06KT 10SM FEW050 23/12 A3006 RMK AO2 SLP179 T02280122 56015

More Conditions Fewer Conditions

10-Day Weather Forecast

Almanac

Astronomía

Sep. 18, 2014 Salida Puesta
Hora real 6:49 AM CDT 7:10 PM CDT
Crepúsculo civil 6:21 AM CDT 7:37 PM CDT
Crepúsculo náutico 5:48 AM CDT 8:10 PM CDT
Crepúsculo astronómico 5:15 AM CDT 8:44 PM CDT
Luna 1:38 AM CDT 4:04 PM CDT
Horas de luz 13h 16m
Horas de luz
12h 20m
Tomorrow will be 2m 46s shorter.
Creciente menguante, 24% of the Moon is Illuminated
Hoy
Creciente menguante
Sep 24
Nueva
Oct 1
Cuarto creciente
Oct 8
Luna llena
Oct 15
Cuarto menguante

Extremos de hoy

Máximos del estado Bajos del estado

Community

WunderPhotos

Upload Photos

1,754,452 ¡fotos cargadas!

WunderBlogs® & News

Nearby

Grosos de nieve

Estación Profundido Altura
No tenemos constancia de nieve nueva.

Actividad de terremotos

Ciudad Distance Mag. Tiempo y dato
No hay informes recientes de la actividad sísmica.
Magnitud mínima muestra es 2,5.

Temperaturas de aguas costeras

Lugar Temperatura
Sin partes meteorológicos de las estaciones

Estaciones meteorológicas cercanas